Hughes Springs, Texas
Current Conditions -  °F | °C
As of 9:15 PM on Friday 21 Nov 2014 (Local Time) from KOSA Reporting Station
Overcast Overcast  
Wind Chill: 59°   Ceiling: 3900
Heat Index: 59°   Visibility: 10mi
Dew Point: 57°   Wind: 7mph
Humidity: 95%   Direction: 120°ESE
Pressure: 30.18"   Gusts: NA
Location:  33°N, 94.63°W
Report Text: KOSA 220315Z AUTO 12006KT 10SM BKN039 OVC050 15/14 A3018 RMK AO1 T01480140
Loading
Personal Weather Stations






























Interactive Weather Map New forecast layout! Learn more

10-Day Weather Forecast

Advertisements
Track Severe Weather on mobile